createdAt,value
2022-09-07T09:23:01.303Z,54.76
2022-09-07T09:25:46.239Z,52.99
2022-09-07T09:28:32.407Z,55.53
2022-09-07T09:31:17.674Z,54.71
2022-09-07T09:34:02.329Z,54.31
2022-09-07T09:36:47.141Z,53.09
2022-09-07T09:39:31.899Z,52.00
2022-09-07T09:42:17.213Z,51.84
2022-09-07T09:45:01.874Z,52.35
2022-09-07T09:47:46.580Z,54.11
2022-09-07T09:53:36.491Z,54.23
2022-09-07T09:56:21.318Z,54.61
2022-09-07T09:59:56.765Z,54.95
2022-09-07T10:05:15.851Z,50.80
2022-09-07T10:08:00.648Z,50.73
2022-09-07T10:10:45.349Z,50.80
2022-09-07T10:13:30.196Z,50.64
2022-09-07T10:16:15.102Z,49.97
2022-09-07T10:19:00.230Z,49.12
2022-09-07T10:21:44.900Z,49.73
2022-09-07T10:24:29.808Z,49.85
2022-09-07T10:27:14.621Z,49.67
2022-09-07T10:29:59.512Z,50.16
2022-09-07T10:32:44.200Z,48.24
2022-09-07T10:35:28.899Z,48.15
2022-09-07T10:38:15.115Z,46.85
2022-09-07T10:41:00.004Z,47.21
2022-09-07T10:43:44.851Z,47.07
2022-09-07T10:49:34.157Z,46.19
2022-09-07T10:52:18.980Z,46.44
2022-09-07T10:55:03.818Z,46.11
2022-09-07T10:57:49.341Z,46.03
2022-09-07T11:00:34.316Z,46.20
2022-09-07T11:03:35.258Z,45.89
2022-09-07T11:06:20.052Z,45.24
2022-09-07T11:09:20.461Z,45.88
2022-09-07T11:12:05.825Z,46.04
2022-09-07T11:14:50.498Z,43.92
2022-09-07T11:17:35.249Z,45.32
2022-09-07T11:20:19.905Z,45.15
2022-09-07T11:23:04.794Z,46.29
2022-09-07T11:25:49.539Z,45.49
2022-09-07T11:28:34.655Z,44.02
2022-09-07T11:31:19.428Z,45.10
2022-09-07T11:37:09.231Z,44.65
2022-09-07T11:39:53.987Z,46.28
2022-09-07T11:42:45.980Z,46.94
2022-09-07T11:45:30.659Z,47.49
2022-09-07T11:48:19.612Z,45.42
2022-09-07T11:51:04.665Z,48.00
2022-09-07T11:53:49.520Z,47.40
2022-09-07T11:56:37.102Z,47.48
2022-09-07T11:59:21.728Z,48.19
2022-09-07T12:02:06.602Z,47.77
2022-09-07T12:04:56.039Z,47.57
2022-09-07T12:07:41.516Z,47.55
2022-09-07T12:10:26.420Z,46.12
2022-09-07T12:13:11.053Z,46.81
2022-09-07T12:15:55.909Z,45.38
2022-09-07T12:18:40.778Z,44.39
2022-09-07T12:21:25.645Z,44.73
2022-09-07T12:24:10.300Z,44.93
2022-09-07T12:26:55.041Z,43.63
2022-09-07T12:29:45.244Z,43.37
2022-09-07T12:35:35.217Z,42.55
2022-09-07T12:38:20.140Z,43.55
2022-09-07T12:41:04.913Z,42.10
2022-09-07T12:43:49.924Z,42.33
2022-09-07T12:46:35.202Z,41.45
2022-09-07T12:49:20.355Z,39.90
2022-09-07T12:52:14.881Z,39.24
2022-09-07T12:55:23.906Z,40.97
2022-09-07T12:58:05.602Z,40.19
2022-09-07T13:00:50.368Z,39.40
2022-09-07T13:03:51.911Z,38.52
2022-09-07T13:09:41.907Z,38.50
2022-09-07T13:15:31.667Z,38.45
2022-09-07T13:18:16.294Z,38.59
2022-09-07T13:21:01.031Z,37.63
2022-09-07T13:23:45.950Z,37.24
2022-09-07T13:26:30.812Z,36.43
2022-09-07T13:29:15.429Z,37.68
2022-09-07T13:32:00.344Z,37.04
2022-09-07T13:34:45.123Z,36.49
2022-09-07T13:37:29.883Z,37.18
2022-09-07T13:40:14.908Z,36.92
2022-09-07T13:43:00.103Z,37.01
2022-09-07T13:45:44.926Z,38.53
2022-09-07T13:48:29.604Z,38.59
2022-09-07T13:51:14.508Z,39.23
2022-09-07T13:53:59.283Z,39.74
2022-09-07T13:56:43.907Z,41.29
2022-09-07T13:59:28.604Z,40.42
2022-09-07T14:02:13.471Z,39.24
2022-09-07T14:04:58.283Z,39.04
2022-09-07T14:07:43.013Z,38.61
2022-09-07T14:10:27.849Z,38.54
2022-09-07T14:13:12.431Z,38.38
2022-09-07T14:15:57.189Z,39.48
2022-09-07T14:18:41.860Z,38.22
2022-09-07T14:21:26.688Z,39.41
2022-09-07T14:24:11.386Z,38.09
2022-09-07T14:26:56.155Z,38.24
2022-09-07T14:29:40.815Z,38.53
2022-09-07T14:32:25.574Z,38.64
2022-09-07T14:35:10.367Z,39.77
2022-09-07T14:37:55.168Z,39.54
2022-09-07T14:40:40.079Z,40.33
2022-09-07T14:43:24.840Z,40.27
2022-09-07T14:46:09.667Z,40.51
2022-09-07T14:48:55.280Z,40.29
2022-09-07T14:51:40.157Z,40.70
2022-09-07T14:54:24.820Z,41.24
2022-09-07T14:57:09.765Z,42.05
2022-09-07T14:59:54.887Z,43.38
2022-09-07T15:02:39.591Z,44.38
2022-09-07T15:05:25.457Z,44.35
2022-09-07T15:08:10.622Z,45.11
2022-09-07T15:14:00.530Z,46.08
2022-09-07T15:16:45.594Z,46.19
2022-09-07T15:19:30.630Z,47.62
2022-09-07T15:22:15.279Z,46.28
2022-09-07T15:25:00.116Z,46.12
2022-09-07T15:27:44.827Z,45.43
2022-09-07T15:30:29.700Z,45.25
2022-09-07T15:33:14.365Z,44.53
2022-09-07T15:35:59.107Z,45.04
2022-09-07T15:38:59.962Z,43.61
2022-09-07T15:41:45.165Z,44.68
2022-09-07T15:44:30.018Z,44.80
2022-09-07T15:50:19.676Z,44.90
2022-09-07T15:53:04.752Z,44.96
2022-09-07T15:55:49.630Z,45.39
2022-09-07T15:58:34.458Z,44.42
2022-09-07T16:04:24.348Z,48.26
2022-09-07T16:07:09.353Z,47.98
2022-09-07T16:09:54.080Z,48.26
2022-09-07T16:15:45.095Z,46.98
2022-09-07T16:18:31.844Z,45.78
2022-09-07T16:21:17.133Z,45.72
2022-09-07T16:24:01.964Z,46.59
2022-09-07T16:26:46.839Z,47.30
2022-09-07T16:29:31.628Z,50.70
2022-09-07T16:35:21.313Z,50.09
2022-09-07T16:41:10.800Z,50.21
2022-09-07T16:43:55.585Z,50.98
2022-09-07T16:46:40.400Z,51.17
2022-09-07T16:49:25.274Z,52.13
2022-09-07T16:52:10.991Z,53.37
2022-09-07T16:54:55.697Z,52.03
2022-09-07T17:00:45.321Z,53.74
2022-09-07T17:03:30.155Z,55.19
2022-09-07T17:06:15.376Z,55.13
2022-09-07T17:09:00.110Z,56.60
2022-09-07T17:11:44.886Z,57.97
2022-09-07T17:14:29.457Z,60.77
2022-09-07T17:17:14.179Z,61.46
2022-09-07T17:19:58.853Z,60.13
2022-09-07T17:22:44.647Z,59.12
2022-09-07T17:25:29.726Z,59.21
2022-09-07T17:28:15.272Z,59.92
2022-09-07T17:31:00.247Z,57.65
2022-09-07T17:33:44.984Z,57.99
2022-09-07T17:36:29.745Z,59.77
2022-09-07T17:39:16.476Z,59.32
2022-09-07T17:42:02.408Z,58.68
2022-09-07T17:44:52.787Z,58.63
2022-09-07T17:47:37.926Z,57.88
2022-09-07T17:50:22.771Z,58.85
2022-09-07T17:53:07.567Z,59.74
2022-09-07T17:55:52.339Z,59.24
2022-09-07T17:58:37.124Z,59.86
2022-09-07T18:01:22.943Z,60.12
2022-09-07T18:04:08.696Z,61.94
2022-09-07T18:06:53.552Z,62.06
2022-09-07T18:09:38.294Z,61.59
2022-09-07T18:12:22.994Z,61.39
2022-09-07T18:15:07.678Z,61.75
2022-09-07T18:17:52.479Z,61.49
2022-09-07T18:20:37.253Z,61.35
2022-09-07T18:23:22.052Z,61.21
2022-09-07T18:26:06.762Z,60.75
2022-09-07T18:29:18.704Z,60.25
2022-09-07T18:31:56.751Z,59.41
2022-09-07T18:34:41.762Z,59.99
2022-09-07T18:37:26.533Z,60.55
2022-09-07T18:40:11.283Z,60.79
2022-09-07T18:42:56.027Z,60.45
2022-09-07T18:45:40.786Z,60.03
2022-09-07T18:48:25.462Z,61.00
2022-09-07T18:51:10.178Z,60.52
2022-09-07T18:53:55.612Z,60.98
2022-09-07T18:56:40.729Z,61.23
2022-09-07T18:59:25.497Z,61.39
2022-09-07T19:02:10.412Z,61.42
2022-09-07T19:08:00.497Z,61.04
2022-09-07T19:10:45.332Z,60.94
2022-09-07T19:13:30.131Z,59.55
2022-09-07T19:16:14.957Z,59.60
2022-09-07T19:18:59.544Z,59.85
2022-09-07T19:21:44.356Z,61.32
2022-09-07T19:24:29.064Z,60.85
2022-09-07T19:27:13.866Z,60.55
2022-09-07T19:29:58.622Z,60.58
2022-09-07T19:32:43.313Z,59.62
2022-09-07T19:35:28.223Z,59.15
2022-09-07T19:38:12.939Z,59.62
2022-09-07T19:40:57.729Z,60.32
2022-09-07T19:43:42.457Z,60.48
2022-09-07T19:46:27.482Z,60.57
2022-09-07T19:49:12.168Z,60.04
2022-09-07T19:51:57.075Z,60.17
2022-09-07T19:54:41.816Z,60.49
2022-09-07T19:57:26.720Z,60.88
2022-09-07T20:00:11.544Z,60.40
2022-09-07T20:02:56.384Z,60.23
2022-09-07T20:05:41.088Z,60.40
2022-09-07T20:08:25.859Z,60.81
2022-09-07T20:11:10.762Z,60.66
2022-09-07T20:13:55.470Z,60.63
2022-09-07T20:16:40.323Z,60.83
2022-09-07T20:19:25.009Z,60.91
2022-09-07T20:22:09.792Z,60.65
2022-09-07T20:24:54.478Z,59.87
2022-09-07T20:27:39.232Z,60.94
2022-09-07T20:30:24.028Z,61.10
2022-09-07T20:33:08.818Z,60.65
2022-09-07T20:35:53.512Z,60.19
2022-09-07T20:38:38.207Z,59.76
2022-09-07T20:41:23.050Z,59.46
2022-09-07T20:44:07.806Z,59.62
2022-09-07T20:46:52.721Z,59.09
2022-09-07T20:49:37.295Z,59.50
2022-09-07T20:52:22.092Z,58.82
2022-09-07T20:55:06.834Z,59.03
2022-09-07T20:57:51.649Z,59.77
2022-09-07T21:00:36.428Z,58.96
2022-09-07T21:03:21.051Z,60.01
2022-09-07T21:06:05.854Z,59.66
2022-09-07T21:08:50.586Z,58.59
2022-09-07T21:11:35.480Z,58.19
2022-09-07T21:14:20.170Z,57.61
2022-09-07T21:17:04.877Z,59.23
2022-09-07T21:19:49.587Z,59.15
2022-09-07T21:22:34.273Z,58.60
2022-09-07T21:25:18.836Z,58.91
2022-09-07T21:28:03.618Z,58.80
2022-09-07T21:30:48.300Z,59.18
2022-09-07T21:33:33.188Z,58.63
2022-09-07T21:36:18.317Z,58.34
2022-09-07T21:39:03.059Z,58.98
2022-09-07T21:41:47.961Z,59.48
2022-09-07T21:44:32.808Z,59.16
2022-09-07T21:47:17.685Z,58.85
2022-09-07T21:50:02.285Z,58.56
2022-09-07T21:52:47.035Z,58.63
2022-09-07T21:55:31.692Z,59.10
2022-09-07T21:58:16.525Z,59.40
2022-09-07T22:01:01.238Z,59.13
2022-09-07T22:03:45.992Z,58.16
2022-09-07T22:06:30.847Z,58.11
2022-09-07T22:09:15.545Z,58.01
2022-09-07T22:12:00.349Z,57.86
2022-09-07T22:14:44.945Z,57.79
2022-09-07T22:17:29.794Z,58.29
2022-09-07T22:20:14.457Z,58.58
2022-09-07T22:22:59.234Z,59.28
2022-09-07T22:25:43.989Z,59.09
2022-09-07T22:28:28.750Z,59.02
2022-09-07T22:31:13.545Z,58.28
2022-09-07T22:33:58.687Z,58.55
2022-09-07T22:36:43.496Z,59.08
2022-09-07T22:39:28.333Z,59.59
2022-09-07T22:42:13.189Z,59.52
2022-09-07T22:44:57.888Z,59.55
2022-09-07T22:47:42.688Z,59.95
2022-09-07T22:50:27.415Z,60.73
2022-09-07T22:53:12.283Z,60.02
2022-09-07T22:55:56.962Z,60.16
2022-09-07T22:58:41.584Z,60.01
2022-09-07T23:01:26.432Z,59.60
2022-09-07T23:04:11.270Z,59.30
2022-09-07T23:06:56.384Z,59.04
2022-09-07T23:09:41.155Z,58.91
2022-09-07T23:12:25.842Z,59.70
2022-09-07T23:15:10.718Z,59.05
2022-09-07T23:17:55.348Z,59.58
2022-09-07T23:20:40.135Z,60.04
2022-09-07T23:23:24.853Z,59.70
2022-09-07T23:26:09.617Z,58.88
2022-09-07T23:28:54.547Z,58.90
2022-09-07T23:31:39.477Z,58.70
2022-09-07T23:34:24.763Z,58.46
2022-09-07T23:37:09.397Z,59.19
2022-09-07T23:39:54.181Z,60.18
2022-09-07T23:42:38.980Z,60.16
2022-09-07T23:45:23.675Z,60.29
2022-09-07T23:48:08.438Z,61.07
2022-09-07T23:50:53.010Z,62.32
2022-09-07T23:53:37.913Z,64.52
2022-09-07T23:56:22.611Z,66.46
2022-09-07T23:59:07.286Z,66.35
